Time;durP1;ratioP1;P1;durP2;ratioP2;P2;SDS_P1;SDS_P2;PMS_P1;PMS_P2;Temp;Humidity;BMP_temperature;BMP_pressure;BME280_temperature;BME280_humidity;BME280_pressure;Samples;Min_cycle;Max_cycle;Signal;HPM_P1;HPM_P2
2023/03/14 00:01:20;;;;;;;35.77;8.23;;;9.20;99.90;;;;;;5069076;28;20048;-76
2023/03/14 00:03:46;;;;;;;38.30;8.40;;;9.20;99.90;;;;;;5068395;28;20048;-76
2023/03/14 00:06:12;;;;;;;30.90;7.20;;;9.20;99.90;;;;;;5040665;28;20126;-76
2023/03/14 00:08:38;;;;;;;36.63;7.80;;;9.20;99.90;;;;;;5061882;28;20048;-76
2023/03/14 00:11:09;;;;;;;29.90;7.77;;;9.20;99.90;;;;;;5068050;28;20044;-76
2023/03/14 00:13:35;;;;;;;33.33;8.43;;;9.20;99.90;;;;;;5068027;28;20403;-76
2023/03/14 00:16:06;;;;;;;33.53;7.70;;;9.30;99.90;;;;;;5068279;28;20051;-76
2023/03/14 00:18:32;;;;;;;37.88;7.70;;;9.50;99.90;;;;;;5058416;28;20048;-76
2023/03/14 00:20:59;;;;;;;34.30;7.80;;;9.40;99.90;;;;;;5067765;28;20382;-76
2023/03/14 00:23:26;;;;;;;31.67;7.00;;;9.40;99.90;;;;;;5066986;28;20055;-76
2023/03/14 00:25:52;;;;;;;30.27;7.47;;;9.40;99.90;;;;;;5049491;28;20045;-76
2023/03/14 00:28:18;;;;;;;31.43;6.47;;;9.30;99.90;;;;;;5051665;28;20053;-77
2023/03/14 00:30:43;;;;;;;37.43;7.93;;;9.40;99.90;;;;;;5066198;28;20045;-76
2023/03/14 00:33:09;;;;;;;37.03;7.27;;;9.40;99.90;;;;;;5068300;28;20045;-77
2023/03/14 00:35:34;;;;;;;33.57;7.47;;;9.30;99.90;;;;;;5034409;28;20127;-76
2023/03/14 00:38:00;;;;;;;30.57;7.33;;;9.30;99.90;;;;;;5053424;28;20391;-76
2023/03/14 00:40:26;;;;;;;38.77;7.73;;;9.40;99.90;;;;;;5050338;28;20048;-76
2023/03/14 00:42:51;;;;;;;34.93;6.80;;;9.30;99.90;;;;;;5067302;28;20052;-77
2023/03/14 00:45:17;;;;;;;34.90;7.73;;;9.30;99.90;;;;;;5047258;28;20465;-77
2023/03/14 00:47:45;;;;;;;29.43;7.37;;;9.30;99.90;;;;;;5054862;28;20048;-76
2023/03/14 00:50:11;;;;;;;29.57;6.40;;;9.30;99.90;;;;;;5050509;28;20056;-76
2023/03/14 00:52:37;;;;;;;33.13;7.60;;;9.20;99.90;;;;;;5048290;28;20075;-76
2023/03/14 00:55:04;;;;;;;31.13;6.90;;;9.20;99.90;;;;;;5066871;28;20041;-76
2023/03/14 00:57:29;;;;;;;25.17;6.00;;;9.20;99.90;;;;;;5051642;28;20063;-77
2023/03/14 00:59:55;;;;;;;26.33;5.80;;;9.20;99.90;;;;;;5068831;28;20045;-76
2023/03/14 01:02:21;;;;;;;30.33;6.70;;;9.30;99.90;;;;;;5067221;28;20071;-76
2023/03/14 01:04:50;;;;;;;31.53;6.60;;;9.30;99.90;;;;;;5068109;28;20474;-76
2023/03/14 01:07:16;;;;;;;25.07;6.67;;;9.30;99.90;;;;;;5052199;28;20041;-76
2023/03/14 01:09:42;;;;;;;30.53;5.33;;;9.30;99.90;;;;;;5067069;28;20053;-76
2023/03/14 01:12:07;;;;;;;27.80;6.27;;;9.40;99.90;;;;;;5065977;28;20128;-77
2023/03/14 01:14:33;;;;;;;33.50;6.83;;;9.30;99.90;;;;;;5068081;28;20052;-76
2023/03/14 01:17:00;;;;;;;25.43;6.23;;;9.30;99.90;;;;;;5053643;28;20041;-77
2023/03/14 01:19:29;;;;;;;28.67;6.93;;;9.40;99.90;;;;;;5066798;28;20098;-76
2023/03/14 01:21:55;;;;;;;26.67;5.80;;;9.40;99.90;;;;;;5067552;28;20394;-76
2023/03/14 01:24:21;;;;;;;27.67;6.20;;;9.40;99.90;;;;;;5066735;28;20051;-76
2023/03/14 01:26:46;;;;;;;26.70;5.60;;;9.50;99.90;;;;;;5035112;28;20077;-77
2023/03/14 01:29:12;;;;;;;24.83;5.53;;;9.50;99.90;;;;;;5067018;28;20437;-77
2023/03/14 01:31:38;;;;;;;25.60;5.87;;;9.50;99.90;;;;;;5070471;28;20040;-76
2023/03/14 01:34:04;;;;;;;32.50;5.87;;;9.60;99.90;;;;;;5069255;28;20123;-76
2023/03/14 01:36:29;;;;;;;23.17;5.70;;;9.60;99.90;;;;;;5057090;28;20094;-76
2023/03/14 01:38:55;;;;;;;23.07;5.53;;;9.70;99.90;;;;;;5069737;28;20052;-76
2023/03/14 01:41:25;;;;;;;20.33;5.17;;;9.80;99.90;;;;;;5071052;28;20478;-76
2023/03/14 01:43:51;;;;;;;24.70;5.27;;;9.70;99.90;;;;;;5070055;28;20044;-77
2023/03/14 01:46:45;;;;;;;23.10;5.27;;;9.70;99.90;;;;;;5042636;28;20048;-76
2023/03/14 01:49:28;;;;;;;24.33;4.83;;;9.70;99.90;;;;;;5052558;28;20268;-76
2023/03/14 01:52:27;;;;;;;24.77;4.77;;;9.70;99.90;;;;;;5064583;28;20503;-76
2023/03/14 01:55:00;;;;;;;22.80;5.03;;;9.70;99.90;;;;;;5054774;28;20055;-76
2023/03/14 01:57:32;;;;;;;27.53;5.17;;;9.80;99.90;;;;;;5054686;28;20127;-76
2023/03/14 02:00:11;;;;;;;21.47;5.33;;;9.80;99.90;;;;;;5071390;28;20049;-76
2023/03/14 02:02:39;;;;;;;19.83;4.73;;;9.70;99.90;;;;;;5070080;28;20072;-76
2023/03/14 02:05:05;;;;;;;21.60;5.03;;;9.70;99.90;;;;;;5050971;28;20049;-76
2023/03/14 02:07:48;;;;;;;25.07;4.30;;;9.60;99.90;;;;;;5054826;28;20048;-76
2023/03/14 02:10:18;;;;;;;29.87;5.30;;;9.50;99.90;;;;;;5071003;28;20486;-77
2023/03/14 02:12:45;;;;;;;18.60;3.97;;;9.50;99.90;;;;;;5070300;28;20053;-76
2023/03/14 02:15:12;;;;;;;18.37;3.97;;;9.40;99.90;;;;;;5052351;28;20060;-77
2023/03/14 02:17:40;;;;;;;18.60;4.03;;;9.20;99.90;;;;;;5036600;28;20410;-77
2023/03/14 02:20:39;;;;;;;20.57;4.70;;;9.20;99.90;;;;;;5053018;28;20060;-76
2023/03/14 02:23:05;;;;;;;21.73;4.17;;;9.10;99.90;;;;;;5064245;28;20123;-76
2023/03/14 02:25:58;;;;;;;22.80;4.50;;;9.10;99.90;;;;;;5069751;28;20131;-76
2023/03/14 02:28:24;;;;;;;19.37;4.50;;;9.10;99.90;;;;;;5054901;28;20063;-76
2023/03/14 02:30:49;;;;;;;20.13;4.00;;;9.20;99.90;;;;;;5070454;28;20067;-76
2023/03/14 02:33:19;;;;;;;21.10;4.03;;;9.10;99.90;;;;;;5054521;28;20051;-76
2023/03/14 02:35:47;;;;;;;20.80;4.20;;;9.00;99.90;;;;;;5069533;28;20051;-76
2023/03/14 02:38:29;;;;;;;19.97;3.80;;;8.80;99.90;;;;;;5054450;28;20454;-77
2023/03/14 02:40:54;;;;;;;30.60;4.73;;;8.80;99.90;;;;;;5069769;28;20047;-76
2023/03/14 02:43:20;;;;;;;22.63;4.27;;;8.70;99.90;;;;;;5068974;28;20057;-76
2023/03/14 02:45:48;;;;;;;19.00;3.67;;;8.80;99.90;;;;;;5077356;28;20048;-76
2023/03/14 02:48:25;;;;;;;24.07;4.53;;;8.70;99.90;;;;;;5053101;28;20299;-77
2023/03/14 02:50:55;;;;;;;21.27;4.33;;;8.70;99.90;;;;;;5065110;28;20045;-76
2023/03/14 02:53:27;;;;;;;20.90;4.17;;;8.60;99.90;;;;;;5063285;28;20429;-76
2023/03/14 02:55:52;;;;;;;17.27;3.80;;;8.70;99.90;;;;;;5069592;28;20394;-76
2023/03/14 02:58:19;;;;;;;24.23;4.67;;;8.70;99.90;;;;;;5053955;28;20049;-77
2023/03/14 03:00:45;;;;;;;21.23;3.97;;;8.80;99.90;;;;;;5069767;28;20048;-76
2023/03/14 03:03:11;;;;;;;20.27;3.80;;;8.80;99.90;;;;;;5068399;28;20387;-76
2023/03/14 03:05:37;;;;;;;12.93;3.57;;;8.70;99.90;;;;;;5051716;28;20052;-76
2023/03/14 03:08:03;;;;;;;19.97;4.33;;;8.80;99.90;;;;;;5052726;28;20100;-77
2023/03/14 03:10:29;;;;;;;19.83;4.33;;;8.80;99.90;;;;;;5070021;28;20105;-76
2023/03/14 03:12:55;;;;;;;18.03;4.97;;;8.70;99.90;;;;;;5049593;28;20052;-76
2023/03/14 03:15:21;;;;;;;22.10;4.60;;;8.70;99.90;;;;;;5069919;28;20070;-76
2023/03/14 03:17:47;;;;;;;21.90;4.90;;;8.60;99.90;;;;;;5053080;28;20090;-76
2023/03/14 03:20:13;;;;;;;21.07;5.07;;;8.70;99.90;;;;;;5069731;28;20075;-76
2023/03/14 03:22:39;;;;;;;16.03;4.50;;;8.60;99.90;;;;;;5034470;28;20060;-77
2023/03/14 03:25:07;;;;;;;22.80;5.50;;;8.50;99.90;;;;;;5050831;28;20055;-76
2023/03/14 03:27:34;;;;;;;24.10;5.57;;;8.50;99.90;;;;;;5035407;28;20052;-76
2023/03/14 03:29:59;;;;;;;27.10;6.20;;;8.50;99.90;;;;;;5069735;28;20095;-76
2023/03/14 03:32:25;;;;;;;25.53;5.70;;;8.40;99.90;;;;;;5071476;28;20064;-76
2023/03/14 03:34:51;;;;;;;25.43;5.50;;;8.40;99.90;;;;;;5051199;28;20045;-76
2023/03/14 03:37:17;;;;;;;22.90;6.30;;;8.40;99.90;;;;;;5053725;28;20048;-76
2023/03/14 03:39:43;;;;;;;24.73;5.63;;;8.40;99.90;;;;;;5068845;28;20048;-76
2023/03/14 03:42:09;;;;;;;23.70;5.80;;;8.40;99.90;;;;;;5049869;28;20123;-76
2023/03/14 03:44:35;;;;;;;30.27;7.13;;;8.40;99.90;;;;;;5058468;28;20482;-76
2023/03/14 03:47:01;;;;;;;26.93;6.73;;;8.40;99.90;;;;;;5059917;28;20491;-77
2023/03/14 03:49:30;;;;;;;37.70;7.00;;;8.40;99.90;;;;;;5068187;28;20056;-77
2023/03/14 03:51:56;;;;;;;34.93;7.10;;;8.40;99.90;;;;;;5055979;28;20566;-76
2023/03/14 03:54:22;;;;;;;29.40;6.50;;;8.40;99.90;;;;;;5064925;28;20052;-77
2023/03/14 03:56:48;;;;;;;38.73;7.70;;;8.40;99.90;;;;;;5054271;28;20044;-76
2023/03/14 03:59:14;;;;;;;32.43;7.43;;;8.40;99.90;;;;;;5066777;28;20498;-76
2023/03/14 04:01:40;;;;;;;31.90;6.70;;;8.50;99.90;;;;;;5069216;28;20048;-77
2023/03/14 04:04:05;;;;;;;29.37;6.77;;;8.40;99.90;;;;;;5067107;28;20422;-76
2023/03/14 04:06:31;;;;;;;35.27;7.13;;;8.40;99.90;;;;;;5055192;28;20570;-76
2023/03/14 04:08:57;;;;;;;30.87;7.00;;;8.50;99.90;;;;;;5066367;28;20067;-76
2023/03/14 04:11:22;;;;;;;38.63;7.40;;;8.50;99.90;;;;;;5069717;28;20079;-75
2023/03/14 04:13:48;;;;;;;35.53;7.43;;;8.50;99.90;;;;;;5049592;28;20049;-77
2023/03/14 04:16:17;;;;;;;38.17;7.47;;;8.50;99.90;;;;;;5059656;28;20044;-77
2023/03/14 04:18:43;;;;;;;36.30;6.13;;;8.50;99.90;;;;;;5036007;28;20032;-76
2023/03/14 04:21:09;;;;;;;41.47;7.33;;;8.50;99.90;;;;;;5068706;28;20058;-77
2023/03/14 04:23:34;;;;;;;34.43;6.73;;;8.40;99.90;;;;;;5067578;28;20056;-76
2023/03/14 04:26:00;;;;;;;33.20;7.00;;;8.40;99.90;;;;;;5069093;28;20522;-76
2023/03/14 04:28:25;;;;;;;33.17;7.23;;;8.40;99.90;;;;;;5052162;28;20057;-76
2023/03/14 04:30:51;;;;;;;35.57;7.33;;;8.40;99.90;;;;;;5068258;28;20166;-76
2023/03/14 04:33:18;;;;;;;28.07;6.13;;;8.40;99.90;;;;;;5070829;28;20075;-76
2023/03/14 04:35:44;;;;;;;36.57;8.20;;;8.40;99.90;;;;;;5066640;28;20036;-76
2023/03/14 04:38:11;;;;;;;43.80;7.40;;;8.30;99.90;;;;;;5050164;28;20049;-76
2023/03/14 04:40:40;;;;;;;35.23;7.47;;;8.30;99.90;;;;;;5064750;28;20390;-76
2023/03/14 04:43:08;;;;;;;42.63;8.50;;;8.30;99.90;;;;;;5042479;28;20055;-76
2023/03/14 04:45:34;;;;;;;33.47;8.60;;;8.30;99.90;;;;;;5030137;28;20053;-77
2023/03/14 04:47:59;;;;;;;30.33;8.60;;;8.30;99.90;;;;;;5049450;28;20062;-76
2023/03/14 04:50:25;;;;;;;32.37;8.63;;;8.30;99.90;;;;;;5064758;28;20135;-76
2023/03/14 04:52:51;;;;;;;31.63;8.70;;;8.30;99.90;;;;;;5062766;28;20135;-75
2023/03/14 04:55:16;;;;;;;29.70;9.13;;;8.30;99.90;;;;;;5054098;28;20397;-77
2023/03/14 04:57:42;;;;;;;29.20;9.50;;;8.30;99.90;;;;;;5030320;28;20498;-77
2023/03/14 05:00:09;;;;;;;35.23;10.73;;;8.30;99.90;;;;;;5043452;28;20047;-76
2023/03/14 05:02:35;;;;;;;35.00;10.47;;;8.30;99.90;;;;;;5062625;28;20072;-76
2023/03/14 05:05:01;;;;;;;40.30;11.90;;;8.30;99.90;;;;;;5061508;28;20623;-76
2023/03/14 05:07:26;;;;;;;34.73;11.60;;;8.30;99.90;;;;;;5048391;28;20056;-76
2023/03/14 05:09:53;;;;;;;37.27;11.93;;;8.30;99.90;;;;;;5068729;28;20448;-76
2023/03/14 05:12:19;;;;;;;34.50;12.07;;;8.20;99.90;;;;;;5064413;28;20571;-75
2023/03/14 05:14:45;;;;;;;28.63;11.97;;;8.20;99.90;;;;;;5059208;28;20051;-75
2023/03/14 05:17:14;;;;;;;39.47;13.27;;;8.20;99.90;;;;;;5061034;28;20034;-74
2023/03/14 05:19:40;;;;;;;36.03;11.93;;;8.20;99.90;;;;;;5071727;28;20123;-76
2023/03/14 05:22:06;;;;;;;36.20;12.97;;;8.20;99.90;;;;;;5071181;28;20468;-76
2023/03/14 05:24:32;;;;;;;28.80;12.10;;;8.20;99.90;;;;;;5070417;28;20487;-76
2023/03/14 05:26:57;;;;;;;28.67;10.77;;;8.10;99.90;;;;;;5040332;28;20127;-76
2023/03/14 05:29:23;;;;;;;22.93;10.83;;;8.20;99.90;;;;;;5070375;28;20052;-76
2023/03/14 05:31:49;;;;;;;27.63;10.10;;;8.20;99.90;;;;;;5053972;28;20040;-76
2023/03/14 05:34:14;;;;;;;23.77;10.00;;;8.20;99.90;;;;;;5035466;28;20425;-76
2023/03/14 05:36:40;;;;;;;21.07;9.43;;;8.20;99.90;;;;;;5040206;28;20131;-76
2023/03/14 05:39:06;;;;;;;17.90;8.23;;;8.10;99.90;;;;;;5069253;28;20044;-76
2023/03/14 05:41:32;;;;;;;20.03;8.07;;;8.20;99.90;;;;;;5054513;28;20044;-76
2023/03/14 05:44:01;;;;;;;21.03;7.57;;;8.20;99.90;;;;;;5062364;28;20053;-76
2023/03/14 05:46:26;;;;;;;18.83;7.80;;;8.20;99.90;;;;;;5057482;28;20585;-76
2023/03/14 05:48:52;;;;;;;20.87;7.83;;;8.20;99.90;;;;;;5066570;28;20380;-77
2023/03/14 05:51:18;;;;;;;22.20;8.27;;;8.10;99.90;;;;;;5063153;28;20045;-77
2023/03/14 05:53:43;;;;;;;19.20;8.20;;;8.20;99.90;;;;;;5070248;28;20124;-77
2023/03/14 05:56:09;;;;;;;13.97;7.43;;;8.10;99.90;;;;;;5063094;28;20040;-76
2023/03/14 05:58:35;;;;;;;22.30;6.90;;;8.10;99.90;;;;;;5044738;28;20054;-77
2023/03/14 06:01:05;;;;;;;18.20;8.33;;;8.10;99.90;;;;;;5068695;28;20131;-77
2023/03/14 06:03:31;;;;;;;16.87;7.50;;;8.20;99.90;;;;;;5049174;28;20091;-77
2023/03/14 06:05:57;;;;;;;14.73;6.40;;;8.10;99.90;;;;;;5033092;28;20048;-77
2023/03/14 06:08:23;;;;;;;13.23;6.20;;;8.10;99.90;;;;;;5039265;28;20498;-77
2023/03/14 06:10:48;;;;;;;10.70;5.60;;;8.20;99.90;;;;;;5032856;28;20045;-78
2023/03/14 06:13:15;;;;;;;15.30;6.03;;;8.20;99.90;;;;;;5053694;28;20052;-77
2023/03/14 06:15:41;;;;;;;17.73;6.47;;;8.20;99.90;;;;;;5038097;28;20088;-77
2023/03/14 06:18:07;;;;;;;7.60;1.27;;;8.10;99.90;;;;;;5021712;28;20515;-76
2023/03/14 06:20:33;;;;;;;7.77;0.90;;;7.50;99.90;;;;;;5060372;28;20055;-79
2023/03/14 06:22:59;;;;;;;12.90;1.60;;;7.20;99.90;;;;;;5048115;28;20092;-78
2023/03/14 06:25:25;;;;;;;13.20;1.77;;;6.80;99.90;;;;;;5050263;28;20447;-78
2023/03/14 06:27:50;;;;;;;11.07;2.10;;;6.70;99.90;;;;;;5049667;28;20516;-79
2023/03/14 06:30:16;;;;;;;25.67;2.90;;;6.50;99.90;;;;;;5064818;28;20041;-78
2023/03/14 06:32:42;;;;;;;29.47;2.80;;;6.20;99.90;;;;;;5030821;28;20044;-78
2023/03/14 06:35:08;;;;;;;24.37;3.13;;;6.00;99.90;;;;;;5067524;28;20060;-78
2023/03/14 06:37:34;;;;;;;24.83;3.40;;;5.90;99.90;;;;;;5053080;28;20049;-78
2023/03/14 06:39:59;;;;;;;19.07;3.10;;;5.80;99.90;;;;;;5069559;28;20307;-77
2023/03/14 06:42:25;;;;;;;24.10;3.23;;;5.40;99.90;;;;;;5069385;28;20060;-77
2023/03/14 06:44:51;;;;;;;16.67;2.57;;;5.20;99.90;;;;;;5079368;28;20052;-78
2023/03/14 06:47:17;;;;;;;15.73;2.43;;;4.90;99.90;;;;;;5053038;28;20063;-79
2023/03/14 06:49:42;;;;;;;22.97;2.70;;;4.70;99.90;;;;;;5064602;28;20098;-78
2023/03/14 06:52:08;;;;;;;18.67;2.80;;;4.60;99.90;;;;;;5062626;28;20067;-81
2023/03/14 06:54:34;;;;;;;19.30;2.20;;;4.60;99.90;;;;;;5064848;28;20441;-79
2023/03/14 06:56:59;;;;;;;19.40;1.97;;;4.50;99.90;;;;;;5044052;28;20048;-79
2023/03/14 06:59:25;;;;;;;17.30;1.90;;;4.20;99.90;;;;;;5051050;28;20186;-78
2023/03/14 07:01:51;;;;;;;16.60;1.60;;;4.10;99.90;;;;;;5069392;28;20051;-80
2023/03/14 07:04:17;;;;;;;17.20;1.57;;;4.40;99.90;;;;;;5068123;28;20535;-79
2023/03/14 07:06:44;;;;;;;11.70;1.10;;;3.90;99.90;;;;;;5054565;28;20051;-78
2023/03/14 07:09:13;;;;;;;8.23;1.37;;;3.70;99.90;;;;;;5068362;28;20078;-79
2023/03/14 07:11:39;;;;;;;15.37;1.30;;;3.80;99.90;;;;;;5068965;28;20547;-79
2023/03/14 07:14:05;;;;;;;7.80;1.00;;;3.60;99.90;;;;;;5067321;28;20055;-79
2023/03/14 07:16:32;;;;;;;8.07;0.80;;;3.50;99.90;;;;;;5054283;28;20497;-78
2023/03/14 07:18:59;;;;;;;8.13;0.60;;;3.50;99.90;;;;;;5066342;28;20129;-78
2023/03/14 07:21:25;;;;;;;6.60;0.70;;;3.60;99.90;;;;;;5046258;28;20146;-78
2023/03/14 07:23:51;;;;;;;7.43;1.10;;;3.60;99.90;;;;;;5068163;28;20071;-77
2023/03/14 07:26:17;;;;;;;11.87;0.87;;;3.50;99.90;;;;;;5040157;28;20102;-78
2023/03/14 07:28:42;;;;;;;7.83;0.70;;;3.60;99.90;;;;;;5045330;28;20135;-78
2023/03/14 07:31:08;;;;;;;14.17;0.97;;;3.50;99.90;;;;;;5068503;28;20044;-78
2023/03/14 07:33:34;;;;;;;7.20;0.90;;;3.50;99.90;;;;;;5072140;28;20044;-77
2023/03/14 07:36:00;;;;;;;11.73;1.27;;;3.60;99.90;;;;;;5068731;28;20076;-77
2023/03/14 07:38:26;;;;;;;14.13;1.30;;;3.60;99.90;;;;;;5052946;28;20088;-77
2023/03/14 07:40:59;;;;;;;10.63;0.93;;;3.70;99.90;;;;;;5050777;28;20054;-78
2023/03/14 07:43:25;;;;;;;6.10;1.00;;;3.60;99.90;;;;;;5067252;28;20052;-78
2023/03/14 07:45:50;;;;;;;9.63;1.20;;;4.10;99.90;;;;;;5084415;28;20047;-77
2023/03/14 07:48:16;;;;;;;10.87;0.90;;;3.70;99.90;;;;;;5051829;28;20141;-77
2023/03/14 07:50:41;;;;;;;11.07;1.00;;;3.70;99.90;;;;;;5047253;28;20048;-78
2023/03/14 07:53:07;;;;;;;9.37;1.00;;;3.70;99.90;;;;;;5051153;28;20080;-78
2023/03/14 07:55:33;;;;;;;16.20;1.47;;;3.70;99.90;;;;;;5049374;28;20495;-79
2023/03/14 07:57:58;;;;;;;10.00;1.53;;;3.80;99.90;;;;;;5034097;28;20040;-78
2023/03/14 08:00:25;;;;;;;13.43;1.70;;;3.70;99.90;;;;;;5050690;28;20056;-78
2023/03/14 08:02:50;;;;;;;10.67;1.17;;;3.90;99.90;;;;;;5049381;28;20056;-78
2023/03/14 08:05:16;;;;;;;15.57;1.23;;;3.90;99.90;;;;;;5067929;28;20059;-77
2023/03/14 08:07:42;;;;;;;15.57;1.30;;;3.90;99.90;;;;;;5051599;28;20080;-79
2023/03/14 08:10:09;;;;;;;8.40;1.47;;;4.00;99.90;;;;;;5067532;28;20080;-79
2023/03/14 08:12:34;;;;;;;11.20;1.47;;;4.10;99.90;;;;;;5011039;28;1099337;-77
2023/03/14 08:15:00;;;;;;;12.57;1.43;;;4.20;99.90;;;;;;5067966;28;20049;-78
2023/03/14 08:17:26;;;;;;;13.60;1.50;;;4.20;99.90;;;;;;5034473;28;20555;-80
2023/03/14 08:19:52;;;;;;;12.27;1.50;;;4.30;99.90;;;;;;5064915;28;20048;-79
2023/03/14 08:22:18;;;;;;;16.70;1.90;;;4.30;99.90;;;;;;5060219;28;20398;-79
2023/03/14 08:24:43;;;;;;;10.23;1.57;;;4.30;99.90;;;;;;5034098;28;20052;-78
2023/03/14 08:27:09;;;;;;;12.10;1.83;;;4.30;99.90;;;;;;5051920;28;20044;-79
2023/03/14 08:29:34;;;;;;;12.87;1.80;;;4.30;99.90;;;;;;5068716;28;20159;-79
2023/03/14 08:32:00;;;;;;;15.73;1.87;;;4.40;99.90;;;;;;5077371;28;20110;-80
2023/03/14 08:34:26;;;;;;;13.70;1.80;;;4.60;99.90;;;;;;5070017;28;20052;-79
2023/03/14 08:36:51;;;;;;;16.90;2.53;;;4.50;99.90;;;;;;5035124;28;20072;-79
2023/03/14 08:39:17;;;;;;;21.37;2.77;;;4.60;99.90;;;;;;5068506;28;20047;-80
2023/03/14 08:41:44;;;;;;;13.70;2.50;;;4.80;99.90;;;;;;5068092;28;20048;-80
2023/03/14 08:44:14;;;;;;;21.87;2.67;;;4.80;99.90;;;;;;5073327;28;20048;-79
2023/03/14 08:46:39;;;;;;;13.30;2.63;;;4.70;99.90;;;;;;5039990;28;20053;-80
2023/03/14 08:49:05;;;;;;;20.53;3.50;;;4.90;99.90;;;;;;5069335;28;20553;-80
2023/03/14 08:51:30;;;;;;;23.17;3.37;;;4.80;99.90;;;;;;5069487;28;20048;-79
2023/03/14 08:53:56;;;;;;;20.63;3.70;;;4.90;99.90;;;;;;5068426;28;20056;-78
2023/03/14 08:56:22;;;;;;;24.83;3.87;;;4.90;99.90;;;;;;5056310;28;20045;-81
2023/03/14 08:58:47;;;;;;;29.40;4.40;;;5.00;99.90;;;;;;5065204;28;20052;-79
2023/03/14 09:01:13;;;;;;;31.20;4.50;;;4.90;99.90;;;;;;5051440;28;20052;-79
2023/03/14 09:03:39;;;;;;;24.40;3.63;;;4.90;99.90;;;;;;5067961;28;20056;-77
2023/03/14 09:06:07;;;;;;;24.80;4.27;;;5.10;99.90;;;;;;5063804;28;20045;-79
2023/03/14 09:08:33;;;;;;;26.80;4.33;;;5.10;99.90;;;;;;5058994;28;20440;-77
2023/03/14 09:10:59;;;;;;;27.27;5.10;;;5.30;99.90;;;;;;5068413;28;20044;-77
2023/03/14 09:13:25;;;;;;;32.77;5.17;;;5.50;99.90;;;;;;5067513;28;20048;-77
2023/03/14 09:15:55;;;;;;;32.80;4.67;;;5.30;99.90;;;;;;5068491;28;20114;-79
2023/03/14 09:18:22;;;;;;;27.23;5.27;;;5.20;99.90;;;;;;5052832;28;20103;-80
2023/03/14 09:20:48;;;;;;;24.93;4.50;;;5.00;99.90;;;;;;5068166;28;20581;-79
2023/03/14 09:23:15;;;;;;;31.40;5.10;;;5.00;99.90;;;;;;5049630;28;20047;-79
2023/03/14 09:25:41;;;;;;;24.97;4.97;;;5.10;99.90;;;;;;5068712;28;20048;-79
2023/03/14 09:28:06;;;;;;;26.17;5.10;;;5.10;99.90;;;;;;5052534;28;20082;-79
2023/03/14 09:30:33;;;;;;;29.10;5.43;;;5.10;99.90;;;;;;5068829;28;20136;-79
2023/03/14 09:32:58;;;;;;;36.47;4.67;;;5.10;99.90;;;;;;5055929;28;20102;-80
2023/03/14 09:35:25;;;;;;;25.27;4.33;;;4.90;99.90;;;;;;5067728;28;20713;-79
2023/03/14 09:37:51;;;;;;;23.27;4.00;;;4.90;99.90;;;;;;5052609;28;20060;-80
2023/03/14 09:40:19;;;;;;;22.77;4.03;;;5.00;99.90;;;;;;5067774;28;20514;-79
2023/03/14 09:42:48;;;;;;;34.17;4.40;;;4.90;99.90;;;;;;5049825;28;20052;-80
2023/03/14 09:45:33;;;;;;;23.00;5.00;;;4.90;99.90;;;;;;5076079;28;20445;-80
2023/03/14 09:48:01;;;;;;;23.43;4.07;;;4.90;99.90;;;;;;5040669;28;21009;-80
2023/03/14 09:50:42;;;;;;;17.13;3.87;;;4.70;99.90;;;;;;5058567;28;20145;-80
2023/03/14 09:53:20;;;;;;;26.98;4.13;;;4.60;99.90;;;;;;5024689;28;20447;-80
2023/03/14 09:55:48;;;;;;;28.20;5.10;;;4.70;99.90;;;;;;5062967;28;20044;-80
2023/03/14 09:58:20;;;;;;;29.17;5.47;;;4.70;99.90;;;;;;5034206;28;20076;-79
2023/03/14 10:00:45;;;;;;;29.70;5.28;;;4.80;99.90;;;;;;5067669;28;20048;-78
2023/03/14 10:03:12;;;;;;;29.40;4.97;;;5.00;99.90;;;;;;5049087;28;20510;-78
2023/03/14 10:05:40;;;;;;;26.53;4.50;;;5.00;99.90;;;;;;5049874;28;20119;-79
2023/03/14 10:08:06;;;;;;;25.97;4.20;;;5.20;99.90;;;;;;5042860;28;20167;-78
2023/03/14 10:10:32;;;;;;;23.67;3.87;;;5.30;99.90;;;;;;5066444;28;20131;-80
2023/03/14 10:13:18;;;;;;;30.90;4.73;;;5.60;99.90;;;;;;5064158;28;20053;-79
2023/03/14 10:16:01;;;;;;;23.87;4.20;;;5.70;99.90;;;;;;5067024;28;20083;-79
2023/03/14 10:18:29;;;;;;;23.80;4.30;;;5.70;99.90;;;;;;5051934;28;20053;-79
2023/03/14 10:21:26;;;;;;;24.27;4.10;;;5.60;99.90;;;;;;5064435;28;20059;-78
2023/03/14 10:23:52;;;;;;;19.70;4.13;;;5.60;99.90;;;;;;5065854;28;20079;-79
2023/03/14 10:26:26;;;;;;;19.23;4.03;;;5.60;99.90;;;;;;5057390;28;20091;-79
2023/03/14 10:29:00;;;;;;;21.07;3.80;;;5.50;99.90;;;;;;5063815;28;20079;-79
2023/03/14 10:31:26;;;;;;;20.73;3.63;;;5.40;99.90;;;;;;5070036;28;20571;-79
2023/03/14 10:34:05;;;;;;;16.63;3.23;;;5.50;99.90;;;;;;5066184;28;20052;-80
2023/03/14 10:36:34;;;;;;;17.00;3.10;;;5.90;99.90;;;;;;5019820;28;20052;-79
2023/03/14 10:39:18;;;;;;;21.70;2.90;;;6.30;99.90;;;;;;5065818;28;20045;-79
2023/03/14 10:42:13;;;;;;;21.80;3.20;;;6.60;99.90;;;;;;5066347;28;20048;-80
2023/03/14 10:44:39;;;;;;;15.50;3.50;;;6.20;99.90;;;;;;5069956;28;20465;-79
2023/03/14 10:47:05;;;;;;;16.17;2.70;;;5.90;99.90;;;;;;5031035;28;20047;-79
2023/03/14 10:49:34;;;;;;;19.57;3.00;;;5.70;99.90;;;;;;5048855;28;20498;-78
2023/03/14 10:52:13;;;;;;;14.33;2.40;;;6.00;99.90;;;;;;5059998;28;20125;-80
2023/03/14 10:54:39;;;;;;;16.17;2.67;;;6.30;99.90;;;;;;5058980;28;20045;-79
2023/03/14 10:57:08;;;;;;;13.33;2.53;;;6.20;99.90;;;;;;5026442;28;20047;-80
2023/03/14 10:59:39;;;;;;;13.97;2.47;;;5.90;99.90;;;;;;5049540;28;20041;-80
2023/03/14 11:02:34;;;;;;;12.88;2.53;;;5.90;99.90;;;;;;5049087;28;20056;-80
2023/03/14 11:05:18;;;;;;;14.13;2.63;;;6.10;99.90;;;;;;5068734;28;20478;-79
2023/03/14 11:07:45;;;;;;;15.23;2.57;;;6.20;99.90;;;;;;5051515;28;20045;-79
2023/03/14 11:10:26;;;;;;;15.47;2.30;;;6.20;99.90;;;;;;5068955;28;20694;-79
2023/03/14 11:13:18;;;;;;;7.93;1.55;;;6.00;99.90;;;;;;5065644;28;20477;-79
2023/03/14 11:16:32;;;;;;;12.17;2.10;;;5.80;99.90;;;;;;5054942;28;20045;-79
2023/03/14 11:19:13;;;;;;;15.13;2.20;;;5.80;99.90;;;;;;5044145;28;20044;-79
2023/03/14 11:21:51;;;;;;;10.20;2.00;;;6.30;99.90;;;;;;5062106;28;20482;-80
2023/03/14 11:24:58;;;;;;;8.00;1.50;;;6.80;99.90;;;;;;5068209;28;20049;-79
2023/03/14 11:27:41;;;;;;;7.50;1.47;;;7.20;99.90;;;;;;4935619;28;20050;-79
2023/03/14 11:30:27;;;;;;;9.70;1.87;;;6.60;99.90;;;;;;5060204;28;20069;-79
2023/03/14 11:33:18;;;;;;;10.53;1.87;;;6.60;99.90;;;;;;5059584;28;20444;-79
2023/03/14 11:35:57;;;;;;;8.68;1.55;;;7.10;99.90;;;;;;5069956;28;20443;-79
2023/03/14 11:38:30;;;;;;;10.13;1.93;;;6.80;99.90;;;;;;5053896;28;20048;-80
2023/03/14 11:40:58;;;;;;;12.43;1.50;;;6.80;99.90;;;;;;5069582;28;20381;-79
2023/03/14 11:43:26;;;;;;;9.70;1.50;;;6.60;99.90;;;;;;5067918;28;20083;-79
2023/03/14 11:45:54;;;;;;;9.63;2.07;;;7.20;99.90;;;;;;5086902;28;20424;-80
2023/03/14 11:48:46;;;;;;;9.87;1.93;;;7.70;99.90;;;;;;5053529;28;20072;-81
2023/03/14 11:51:17;;;;;;;;;;;8.40;99.90;;;;;;5066623;28;20114;-79
2023/03/14 11:53:47;;;;;;;8.13;1.63;;;8.90;99.90;;;;;;5068784;28;19930;-79
2023/03/14 11:56:24;;;;;;;10.52;2.05;;;9.10;99.90;;;;;;5042102;28;20052;-80
2023/03/14 11:59:04;;;;;;;7.73;1.30;;;8.80;99.90;;;;;;5065108;28;20113;-79
2023/03/14 12:02:13;;;;;;;10.23;2.03;;;8.80;99.90;;;;;;5068888;28;20068;-81
2023/03/14 12:04:54;;;;;;;11.23;2.00;;;8.70;99.90;;;;;;5050506;28;20533;-79
2023/03/14 12:07:27;;;;;;;9.15;2.10;;;8.50;99.90;;;;;;5034712;28;20051;-80
2023/03/14 12:09:54;;;;;;;12.33;2.30;;;8.10;99.90;;;;;;5069433;28;20052;-80
2023/03/14 12:12:23;;;;;;;9.80;1.93;;;7.70;99.90;;;;;;5050014;28;20109;-79
2023/03/14 12:15:01;;;;;;;12.60;2.27;;;7.70;99.90;;;;;;5046273;28;20060;-79
2023/03/14 12:17:43;;;;;;;12.83;2.70;;;7.40;99.90;;;;;;5049189;28;20149;-80
2023/03/14 12:20:14;;;;;;;13.20;2.23;;;7.50;99.90;;;;;;5040545;28;20056;-79
2023/03/14 12:23:02;;;;;;;8.47;1.67;;;8.00;99.90;;;;;;5058201;28;20077;-79
2023/03/14 12:25:33;;;;;;;13.07;2.63;;;8.00;99.90;;;;;;5045658;28;20409;-79
2023/03/14 12:28:31;;;;;;;17.15;2.45;;;8.00;99.90;;;;;;5049190;28;20054;-80
2023/03/14 12:31:32;;;;;;;14.17;2.47;;;8.30;99.90;;;;;;5057062;28;20060;-78
2023/03/14 12:34:20;;;;;;;13.33;2.50;;;7.70;99.90;;;;;;5055984;28;20087;-79
2023/03/14 12:36:49;;;;;;;14.43;2.27;;;7.20;99.90;;;;;;5049420;28;20605;-78
2023/03/14 12:39:33;;;;;;;14.53;2.50;;;7.10;99.90;;;;;;5065135;28;20105;-79
2023/03/14 12:42:20;;;;;;;16.30;2.80;;;7.10;99.90;;;;;;5065690;28;20565;-79
2023/03/14 12:44:50;;;;;;;14.80;2.73;;;7.10;99.90;;;;;;5032116;28;20083;-78
2023/03/14 12:47:19;;;;;;;11.63;2.55;;;6.70;99.90;;;;;;5046862;28;20080;-78
2023/03/14 12:49:57;;;;;;;13.37;2.50;;;6.60;99.90;;;;;;5047691;28;20449;-77
2023/03/14 12:52:42;;;;;;;18.17;2.93;;;6.40;99.90;;;;;;5045821;28;20056;-79
2023/03/14 12:55:20;;;;;;;14.10;2.67;;;6.80;99.90;;;;;;5062523;28;20101;-78
2023/03/14 12:58:13;;;;;;;15.33;2.80;;;7.10;99.90;;;;;;5048563;28;20099;-77
2023/03/14 13:00:40;;;;;;;14.40;2.73;;;7.50;99.90;;;;;;5051214;28;20057;-78